This is the latest recevied weather packets stored in our database for station/object SLG. If no packets are shown the sender has not sent any weather packets the latest 1 day(s).
| Time | Temp. | Humidity | Pressure | Rain* | Wind** | Luminosity | Snow |
|---|---|---|---|---|---|---|---|
| 1778101330 | 8.33° C | 91% | 1008.1 hPa | 5.08 mm | - | - | - |
| 1778099531 | 8.33° C | 91% | 1008 hPa | 5.08 mm | - | - | - |
| 1778097730 | 8.33° C | 90% | 1007.8 hPa | 5.08 mm | - | - | - |
| 1778095935 | 8.33° C | 90% | 1007.4 hPa | 5.08 mm | - | - | - |
| 1778090536 | 9.44° C | 91% | 1006.6 hPa | 5.08 mm | - | - | - |
| 1778088730 | 9.44° C | 91% | 1006.3 hPa | 5.08 mm | - | - | - |
| 1778085130 | 9.44° C | 90% | 1005.8 hPa | 5.08 mm | - | - | - |
| 1778079730 | 11.11° C | 84% | 1004.7 hPa | 3.3 mm | - | - | - |
| 1778068930 | 17.22° C | 59% | 1003 hPa | 0 mm | - | - | - |
| 1778067137 | 16.67° C | 61% | 1003.2 hPa | 0 mm | - | - | - |
| 1778061734 | 14.44° C | 74% | 1003.7 hPa | 0 mm | - | - | - |
| 1778059931 | 14.44° C | 73% | 1004 hPa | 0 mm | - | - | - |
| 1778058131 | 14.44° C | 75% | 1004.1 hPa | 0 mm | - | - | - |
| 1778054532 | 12.78° C | 86% | 1003.9 hPa | 0 mm | - | - | - |
| 1778052731 | 11.67° C | 89% | 1004.2 hPa | 0 mm | - | - | - |
| 1778050932 | 11.11° C | 91% | 1004.4 hPa | 0 mm | - | - | - |
| 1778040131 | 8.89° C | 88% | 1004.7 hPa | 0 mm | - | - | - |
| 1778036532 | 9.44° C | 88% | 1005.2 hPa | 0 mm | - | - | - |
| 1778032932 | 9.44° C | 88% | 1005.6 hPa | 0 mm | - | - | - |
| 1778031131 | 10° C | 87% | 1005.8 hPa | 0 mm | - | - | - |
| 1778029332 | 10° C | 87% | 1006.3 hPa | 0 mm | - | - | - |
| 1778020330 | 11.11° C | 83% | 1006.7 hPa | 0 mm | - | - | - |
| 1778016731 | 11.67° C | 80% | 1006.7 hPa | 0.25 mm | - | - | - |
* Rain since midnight (hover to see other rain measurements)
** Current wind speed in m/s (hover to see current wind gust speed)